createdAt,value
2018-12-08T10:32:44.543Z,5.33
2018-12-08T10:35:14.564Z,5.03
2018-12-08T10:37:43.176Z,7.43
2018-12-08T10:40:11.733Z,8.07
2018-12-08T10:42:40.351Z,5.57
2018-12-08T10:45:09.632Z,11.80
2018-12-08T10:47:38.412Z,4.77
2018-12-08T10:50:10.310Z,7.70
2018-12-08T10:52:38.899Z,8.83
2018-12-08T10:55:08.336Z,12.87
2018-12-08T10:57:36.945Z,7.07
2018-12-08T11:00:11.250Z,13.50
2018-12-08T11:02:40.566Z,7.90
2018-12-08T11:05:09.400Z,7.83
2018-12-08T11:07:37.992Z,11.57
2018-12-08T11:10:06.839Z,11.40
2018-12-08T11:12:35.366Z,8.87
2018-12-08T11:15:05.422Z,9.23
2018-12-08T11:17:34.138Z,10.27
2018-12-08T11:20:03.133Z,8.87
2018-12-08T11:22:31.647Z,13.00
2018-12-08T11:25:00.154Z,9.37
2018-12-08T11:27:29.492Z,12.43
2018-12-08T11:29:57.996Z,11.20
2018-12-08T11:32:26.557Z,7.93
2018-12-08T11:34:55.068Z,11.40
2018-12-08T11:37:23.678Z,9.53
2018-12-08T11:39:52.198Z,8.13
2018-12-08T11:42:20.850Z,11.03
2018-12-08T11:44:49.503Z,10.40
2018-12-08T11:47:18.001Z,16.70
2018-12-08T11:49:46.568Z,9.30
2018-12-08T11:52:15.185Z,12.37
2018-12-08T11:54:43.663Z,11.77
2018-12-08T11:57:12.329Z,11.57
2018-12-08T11:59:41.781Z,12.77
2018-12-08T12:02:16.439Z,10.27
2018-12-08T12:04:41.039Z,16.47
2018-12-08T12:07:09.650Z,10.27
2018-12-08T12:09:38.214Z,16.10
2018-12-08T12:12:06.777Z,12.53
2018-12-08T12:14:54.324Z,14.00
2018-12-08T12:17:22.846Z,11.33
2018-12-08T12:19:51.731Z,13.60
2018-12-08T12:22:20.253Z,11.43
2018-12-08T12:24:48.836Z,9.30
2018-12-08T12:27:17.450Z,11.00
2018-12-08T12:29:46.005Z,9.30
2018-12-08T12:32:14.701Z,15.07
2018-12-08T12:34:43.897Z,13.63
2018-12-08T12:37:12.686Z,10.67
2018-12-08T12:39:43.557Z,10.13
2018-12-08T12:42:12.083Z,10.80
2018-12-08T12:44:40.822Z,8.30
2018-12-08T12:47:09.395Z,10.30
2018-12-08T12:49:38.149Z,9.83
2018-12-08T12:52:06.872Z,10.73
2018-12-08T12:54:36.553Z,10.20
2018-12-08T12:57:05.103Z,9.80
2018-12-08T12:59:34.203Z,10.63
2018-12-08T13:02:02.847Z,8.83
2018-12-08T13:04:31.570Z,10.83
2018-12-08T13:07:00.309Z,13.50
2018-12-08T13:09:28.915Z,14.73
2018-12-08T13:11:57.890Z,9.87
2018-12-08T13:14:26.530Z,11.60
2018-12-08T13:16:55.168Z,10.17
2018-12-08T13:19:23.745Z,11.63
2018-12-08T13:21:52.626Z,7.77
2018-12-08T13:24:21.239Z,10.13
2018-12-08T13:26:49.852Z,11.17
2018-12-08T13:29:18.490Z,11.30
2018-12-08T13:31:47.005Z,10.20
2018-12-08T13:34:27.659Z,11.27
2018-12-08T13:36:56.324Z,10.43
2018-12-08T13:39:24.890Z,11.57
2018-12-08T13:41:53.577Z,11.73
2018-12-08T13:44:37.578Z,10.30
2018-12-08T13:47:06.466Z,8.77
2018-12-08T13:49:36.041Z,10.53
2018-12-08T13:52:05.047Z,9.47
2018-12-08T13:54:42.870Z,9.57
2018-12-08T13:57:11.560Z,10.10
2018-12-08T13:59:41.194Z,13.27
2018-12-08T14:02:09.795Z,13.10
2018-12-08T14:04:39.711Z,12.13
2018-12-08T14:07:08.804Z,8.50
2018-12-08T14:09:37.483Z,13.60
2018-12-08T14:12:06.288Z,13.67
2018-12-08T14:14:35.600Z,13.57
2018-12-08T14:17:04.298Z,11.00
2018-12-08T14:19:33.661Z,10.37
2018-12-08T14:22:03.308Z,7.83
2018-12-08T14:24:31.902Z,13.37
2018-12-08T14:27:00.964Z,10.40
2018-12-08T14:29:29.572Z,13.20
2018-12-08T14:31:58.458Z,12.03
2018-12-08T14:34:26.949Z,9.60
2018-12-08T14:36:55.893Z,14.17
2018-12-08T14:39:24.542Z,13.67
2018-12-08T14:41:54.034Z,15.40
2018-12-08T14:44:22.659Z,13.70
2018-12-08T14:46:51.204Z,12.03
2018-12-08T14:49:20.202Z,12.93
2018-12-08T14:51:48.849Z,15.87
2018-12-08T14:54:17.567Z,15.47
2018-12-08T14:56:46.149Z,15.17
2018-12-08T14:59:14.654Z,16.70
2018-12-08T15:01:44.419Z,17.43
2018-12-08T15:04:13.066Z,12.63
2018-12-08T15:06:42.876Z,18.93
2018-12-08T15:09:11.482Z,13.57
2018-12-08T15:11:40.074Z,19.47
2018-12-08T15:14:09.006Z,17.37
2018-12-08T15:16:37.589Z,17.07
2018-12-08T15:19:06.116Z,17.57
2018-12-08T15:21:34.678Z,20.33
2018-12-08T15:24:03.180Z,16.43
2018-12-08T15:26:32.100Z,17.20
2018-12-08T15:29:00.583Z,21.50
2018-12-08T15:31:29.313Z,15.23
2018-12-08T15:33:58.158Z,19.80
2018-12-08T15:36:27.126Z,15.17
2018-12-08T15:38:56.037Z,18.47
2018-12-08T15:41:24.646Z,16.30
2018-12-08T15:43:53.203Z,19.40
2018-12-08T15:46:21.931Z,17.83
2018-12-08T15:48:50.442Z,22.40
2018-12-08T15:51:18.980Z,18.73
2018-12-08T15:53:49.032Z,17.27
2018-12-08T15:56:17.546Z,21.47
2018-12-08T15:58:47.068Z,17.03
2018-12-08T16:01:15.763Z,20.97
2018-12-08T16:03:44.347Z,16.77
2018-12-08T16:06:12.880Z,20.90
2018-12-08T16:08:41.419Z,17.80
2018-12-08T16:11:09.921Z,23.23
2018-12-08T16:13:38.768Z,17.13
2018-12-08T16:16:07.286Z,16.33
2018-12-08T16:18:35.879Z,15.47
2018-12-08T16:21:05.407Z,14.80
2018-12-08T16:23:34.096Z,17.27
2018-12-08T16:26:02.869Z,14.83
2018-12-08T16:28:31.938Z,18.07
2018-12-08T16:31:00.618Z,15.57
2018-12-08T16:33:29.148Z,16.43
2018-12-08T16:35:57.784Z,18.07
2018-12-08T16:38:26.479Z,18.43
2018-12-08T16:40:55.218Z,14.43
2018-12-08T16:43:23.938Z,20.07
2018-12-08T16:45:52.629Z,17.97
2018-12-08T16:48:21.361Z,13.73
2018-12-08T16:50:50.769Z,7.60
2018-12-08T16:53:19.456Z,13.70
2018-12-08T16:55:48.053Z,13.93
2018-12-08T16:58:16.663Z,13.20
2018-12-08T17:00:45.214Z,10.90
2018-12-08T17:03:13.827Z,11.10
2018-12-08T17:05:42.505Z,9.57
2018-12-08T17:08:11.410Z,9.33
2018-12-08T17:10:40.000Z,11.27
2018-12-08T17:13:08.757Z,6.67
2018-12-08T17:15:37.495Z,7.90
2018-12-08T17:18:06.205Z,9.40
2018-12-08T17:20:34.895Z,7.87
2018-12-08T17:23:03.761Z,6.43
2018-12-08T17:25:32.791Z,6.33
2018-12-08T17:28:01.670Z,5.70
2018-12-08T17:30:30.549Z,6.67
2018-12-08T17:32:59.596Z,5.50
2018-12-08T17:35:28.266Z,4.37
2018-12-08T17:37:57.372Z,5.47
2018-12-08T17:40:26.312Z,7.80
2018-12-08T17:42:56.067Z,5.17
2018-12-08T17:45:24.727Z,4.43
2018-12-08T17:47:54.586Z,5.47
2018-12-08T17:50:23.408Z,3.27
2018-12-08T17:52:52.061Z,2.87
2018-12-08T17:55:20.702Z,3.03
2018-12-08T17:57:49.297Z,2.30
2018-12-08T18:00:18.489Z,4.30
2018-12-08T18:02:47.092Z,3.50
2018-12-08T18:05:15.685Z,6.10
2018-12-08T18:07:44.329Z,2.60
2018-12-08T18:10:13.022Z,1.80
2018-12-08T18:12:41.620Z,1.60
2018-12-08T18:15:10.180Z,3.70
2018-12-08T18:17:38.732Z,1.93
2018-12-08T18:20:07.957Z,4.03
2018-12-08T18:22:36.837Z,3.20
2018-12-08T18:25:05.597Z,2.20
2018-12-08T18:27:34.282Z,2.13
2018-12-08T18:30:03.044Z,3.17
2018-12-08T18:32:32.043Z,1.60
2018-12-08T18:35:00.660Z,2.43
2018-12-08T18:37:29.232Z,2.37
2018-12-08T18:39:58.767Z,1.70
2018-12-08T18:42:27.413Z,1.67
2018-12-08T18:44:55.963Z,2.47
2018-12-08T18:47:24.575Z,1.23
2018-12-08T18:49:53.206Z,4.77
2018-12-08T18:52:21.808Z,2.13
2018-12-08T18:54:50.582Z,1.90
2018-12-08T18:57:19.258Z,1.43
2018-12-08T18:59:47.851Z,1.70
2018-12-08T19:02:16.524Z,2.43
2018-12-08T19:04:45.227Z,0.90
2018-12-08T19:07:13.810Z,2.00
2018-12-08T19:09:42.537Z,1.93
2018-12-08T19:12:11.146Z,2.03
2018-12-08T19:14:39.710Z,2.33
2018-12-08T19:17:08.332Z,1.93
2018-12-08T19:19:36.926Z,0.90
2018-12-08T19:22:05.666Z,2.20
2018-12-08T19:24:34.331Z,0.80
2018-12-08T19:27:04.050Z,0.80
2018-12-08T19:29:32.639Z,1.30
2018-12-08T19:32:01.591Z,2.47
2018-12-08T19:34:30.216Z,1.87
2018-12-08T19:36:58.761Z,2.13
2018-12-08T19:39:27.345Z,1.93
2018-12-08T19:41:55.921Z,1.77
2018-12-08T19:44:24.537Z,1.20
2018-12-08T19:46:53.391Z,1.60
2018-12-08T19:49:21.923Z,1.47
2018-12-08T19:51:51.133Z,3.97
2018-12-08T19:54:19.706Z,1.43
2018-12-08T19:56:48.279Z,1.67
2018-12-08T19:59:16.864Z,1.40
2018-12-08T20:01:45.854Z,2.13
2018-12-08T20:04:14.490Z,1.20
2018-12-08T20:06:43.166Z,0.83
2018-12-08T20:09:11.736Z,1.27
2018-12-08T20:11:40.621Z,1.03
2018-12-08T20:14:09.185Z,1.40
2018-12-08T20:16:37.922Z,1.13
2018-12-08T20:19:08.301Z,2.80
2018-12-08T20:21:37.191Z,1.30
2018-12-08T20:24:06.578Z,1.07
2018-12-08T20:26:35.980Z,3.07
2018-12-08T20:29:06.533Z,2.37
2018-12-08T20:31:35.952Z,0.80
2018-12-08T20:34:04.832Z,3.77
2018-12-08T20:36:34.122Z,1.00
2018-12-08T20:39:03.140Z,1.13
2018-12-08T20:41:31.828Z,0.87
2018-12-08T20:44:00.628Z,1.37
2018-12-08T20:46:30.130Z,1.30
2018-12-08T20:48:59.139Z,0.90
2018-12-08T20:51:28.054Z,0.90
2018-12-08T20:53:57.215Z,1.43
2018-12-08T20:56:26.281Z,1.13
2018-12-08T20:58:55.107Z,0.90
2018-12-08T21:01:25.013Z,2.03
2018-12-08T21:03:54.928Z,0.67
2018-12-08T21:06:23.788Z,0.80
2018-12-08T21:08:52.381Z,0.73
2018-12-08T21:11:21.095Z,1.10
2018-12-08T21:13:49.745Z,0.87
2018-12-08T21:16:18.299Z,1.33
2018-12-08T21:18:46.890Z,0.90
2018-12-08T21:21:15.747Z,10.27
2018-12-08T21:23:44.338Z,1.50
2018-12-08T21:26:12.997Z,3.30
2018-12-08T21:28:41.775Z,1.37
2018-12-08T21:31:11.702Z,1.33
2018-12-08T21:33:40.376Z,0.90
2018-12-08T21:36:09.127Z,2.10
2018-12-08T21:38:38.041Z,1.20
2018-12-08T21:41:06.806Z,1.20
2018-12-08T21:43:36.448Z,1.93
2018-12-08T21:46:05.260Z,3.60
2018-12-08T21:48:34.214Z,2.43
2018-12-08T21:51:03.277Z,2.07
2018-12-08T21:53:32.001Z,3.20
2018-12-08T21:56:01.005Z,1.73
2018-12-08T21:58:30.016Z,4.07
2018-12-08T22:00:58.866Z,2.47
2018-12-08T22:03:27.794Z,1.73
2018-12-08T22:05:56.604Z,2.33
2018-12-08T22:08:25.345Z,2.43
2018-12-08T22:10:53.980Z,3.13
2018-12-08T22:13:22.758Z,3.50
2018-12-08T22:15:51.854Z,6.37
2018-12-08T22:18:20.722Z,5.00
2018-12-08T22:20:49.470Z,1.43
2018-12-08T22:23:18.130Z,3.33
2018-12-08T22:25:46.966Z,3.23
2018-12-08T22:28:16.639Z,2.93
2018-12-08T22:30:45.648Z,3.67
2018-12-08T22:33:15.199Z,3.07
2018-12-08T22:35:43.911Z,5.23
2018-12-08T22:38:12.805Z,6.00
2018-12-08T22:40:41.463Z,4.83
2018-12-08T22:43:10.617Z,5.03
2018-12-08T22:45:39.491Z,16.20
2018-12-08T22:48:08.319Z,7.40
2018-12-08T22:50:37.008Z,10.80
2018-12-08T22:53:08.804Z,8.83
2018-12-08T22:55:37.572Z,9.80
2018-12-08T22:58:06.359Z,9.10
2018-12-08T23:00:43.242Z,10.37
2018-12-08T23:03:12.352Z,9.97
2018-12-08T23:05:41.983Z,8.53
2018-12-08T23:08:10.836Z,9.00
2018-12-08T23:10:39.950Z,11.33
2018-12-08T23:13:09.087Z,10.63
2018-12-08T23:15:37.910Z,13.00
2018-12-08T23:18:07.417Z,12.30
2018-12-08T23:20:36.221Z,8.03
2018-12-08T23:23:05.720Z,10.73
2018-12-08T23:25:34.472Z,14.70
2018-12-08T23:28:03.153Z,12.80
2018-12-08T23:30:32.459Z,12.10
2018-12-08T23:33:00.975Z,10.83
2018-12-08T23:35:29.491Z,13.97
2018-12-08T23:37:58.108Z,12.17
2018-12-08T23:40:26.729Z,14.03
2018-12-08T23:42:55.256Z,14.07
2018-12-08T23:45:24.013Z,12.73
2018-12-08T23:47:52.632Z,13.10
2018-12-08T23:50:22.258Z,20.23
2018-12-08T23:52:51.087Z,16.07
2018-12-08T23:55:19.763Z,16.87
2018-12-08T23:57:48.584Z,12.00
